BRLK1: Neosho River, Burlington, KS

Data processed at Thu May 23 2019 23:50


All information presented herein is the property of the government of the United States of America and may be revised or deleted at any time without prior notice.
Dissemination of this information without the expressed written consent of the Public Affairs Office, Tulsa District U.S. Army Corps of Engineers is strictly prohibited.
These data are gathered electronically and, as presented, have not undergone any form of quality control. These data are not guaranteed to be valid or correct.
Go to home page.
Go to station list.
Go to home page.

Upstream stations:

Downstream station:
Previous Day
Next Day
Current Day
    
SHEF ID:       BRLK1     Neosho River, Burlington, KS
STATION TYPE:  
Regulating: Stage =    23.00, Flow =    16777

               PRECIP     STAGE  RIV-FLOW  BAT-LOAD
                   in        ft       cfs      volt
              Ccp-Rev   Ccp-Rev   Ccp-Rev   Ccp-Rev
(US/Central)
05/23 00:00      0.00     30.77     24733     12.71
05/23 01:00      0.00     30.68     24500     12.65
05/23 02:00      0.00     30.74     24655     12.71
05/23 03:00      0.00     30.73     24629     12.71
05/23 04:00      0.00     30.75     24681     12.65
05/23 05:00      0.00     30.78     24759     12.65
05/23 06:00      0.00     30.76     24707     12.65
05/23 07:00      0.00     30.82     24863     12.65
05/23 08:00      0.00     30.81     24837     12.65
05/23 09:00      0.00     30.79     24785     12.71
05/23 10:00      0.00     30.82     24863     12.89
05/23 11:00      0.00     30.84     24915     13.12
05/23 12:00      0.00     30.74     24655     12.95
05/23 13:00      0.00     30.69     24526     12.95
05/23 14:00      0.00     30.84     24915     12.89
05/23 15:00      0.00     30.79     24785     13.00
05/23 16:00      0.00     30.79     24785     13.00
05/23 17:00      0.00     30.72     24603     13.07
05/23 18:00      0.00     30.85     24941     12.95
05/23 19:00      0.00     30.79     24785     12.89
05/23 20:00      0.00     30.82     24863     12.77
05/23 21:00      0.00     30.79     24785     12.71
05/23 22:00      0.00     30.84     24915     12.71
05/23 23:00      0.00     30.82     24863     12.65